AKST,Max TemperatureF,Mean TemperatureF,Min TemperatureF,Max Dew PointF,MeanDew PointF,Min DewpointF,Max Humidity, Mean Humidity, Min Humidity, Max Sea Level PressureIn, Mean Sea Level PressureIn, Min Sea Level PressureIn, Max VisibilityMiles, Mean VisibilityMiles, Min VisibilityMiles, Max Wind SpeedMPH, Mean Wind SpeedMPH, Max Gust SpeedMPH,PrecipitationIn, CloudCover, Events, WindDirDegrees
2011-11-1,,,,,,,,,,,,,,,,,,,,,,
2011-11-2,,,,,,,,,,,,,,,,,,,,,,
2011-11-3,24,22,19,16,9,0,86,58,34,29.70,29.46,29.28,10,10,5,16,6,26,0.00,5,,181
2011-11-4,30,24,19,27,19,10,93,69,54,29.53,29.26,29.17,10,9,1,12,5,21,0.00,8,,174
2011-11-5,21,10,1,10,5,0,100,83,58,29.71,29.61,29.38,10,9,4,10,4,,0.00,3,,281
2011-11-6,26,19,12,21,15,10,100,82,64,29.31,29.12,29.05,10,9,2,9,2,17,0.00,4,,188
2011-11-7,14,11,8,10,6,1,92,80,67,29.68,29.48,29.23,10,7,1,15,9,24,0.00,8,,6
2011-11-8,10,0,-11,3,-3,-17,92,81,62,30.19,30.09,29.86,10,9,4,6,2,,0.00,4,,4
2011-11-9,21,5,-11,7,0,-15,92,71,49,29.92,29.73,29.58,10,10,10,8,2,,0.00,3,,219
2011-11-10,26,20,14,21,16,10,100,86,74,29.64,29.44,29.32,10,9,1,6,1,,0.00,8,,180
2011-11-11,17,9,1,16,9,0,100,89,73,29.75,29.55,29.09,10,9,1,5,0,,0.00,3,,220
2011-11-12,23,16,10,19,14,9,100,83,68,28.93,28.78,28.71,10,7,0,10,1,18,0.00,8,,106
2011-11-13,21,18,15,19,14,10,100,82,68,29.52,29.29,29.00,10,6,2,10,3,18,0.00,8,,232
2011-11-14,10,4,-2,7,1,-6,92,89,79,29.73,29.65,29.59,10,5,1,12,4,17,0.00,8,,2
2011-11-15,-5,-9,-13,-8,-13,-17,92,82,71,30.12,29.96,29.78,10,7,2,14,9,22,0.00,6,,7
2011-11-16,-9,-12,-16,-15,-18,-20,92,83,71,30.29,30.21,30.13,10,10,7,9,6,,0.00,0,,349
2011-11-17,-11,-14,-18,-18,-19,-24,84,78,70,30.35,30.32,30.28,10,9,4,18,12,28,0.00,2,,357
2011-11-18,-14,-22,-31,-22,-32,-36,84,73,64,30.14,30.06,29.99,10,10,7,4,0,,0.00,0,,46
2011-11-19,-14,-24,-34,-20,-34,-42,83,76,68,30.15,29.98,29.70,10,10,5,4,0,,0.00,0,,190
2011-11-20,-11,-19,-27,-17,-28,-35,84,77,69,29.55,29.38,29.28,10,10,3,9,0,16,0.00,0,,350
2011-11-21,-18,-27,-36,-24,-34,-44,91,75,67,29.26,29.18,29.11,10,6,1,13,3,18,0.00,6,,10
2011-11-22,-20,-22,-27,-26,-28,-33,83,76,69,29.06,29.03,29.00,10,9,2,10,5,17,0.00,2,,12
2011-11-23,-18,-26,-34,-26,-36,-42,83,73,63,29.13,29.10,29.08,10,10,4,0,0,,0.00,0,,-1
2011-11-24,-20,-28,-36,-27,-38,-42,82,71,63,29.26,29.15,29.10,10,10,10,0,0,,0.00,0,,-1
2011-11-25,-9,-22,-36,-15,-34,-42,84,74,68,29.57,29.48,29.35,10,10,3,8,0,,0.00,3,,15
2011-11-26,-9,-20,-34,-15,-32,-38,84,75,68,29.65,29.61,29.52,10,10,5,6,1,,0.00,0,,333
2011-11-27,-9,-22,-32,-11,-30,-38,92,78,68,29.49,29.42,29.36,10,10,10,5,0,,0.00,0,,195
2011-11-28,3,-6,-18,1,-9,-22,92,87,77,29.46,29.33,29.27,10,10,3,4,0,,0.00,0,,280
2011-11-29,17,0,-14,14,-5,-18,100,88,77,29.90,29.79,29.60,10,10,10,6,1,17,0.00,3,,233
2011-11-30,32,28,23,25,21,18,86,73,60,29.67,29.56,29.39,10,10,10,10,6,18,0.00,6,,173